sensor_id;sensor_type;location;lat;lon;timestamp;temperature;humidity
360;DHT22;168;48.872;9.226;2023-04-23T00:01:40;16.20;85.10
360;DHT22;168;48.872;9.226;2023-04-23T00:04:08;16.10;85.30
360;DHT22;168;48.872;9.226;2023-04-23T00:06:41;16.10;85.20
360;DHT22;168;48.872;9.226;2023-04-23T00:09:10;16.10;85.90
360;DHT22;168;48.872;9.226;2023-04-23T00:11:39;16.00;85.50
360;DHT22;168;48.872;9.226;2023-04-23T00:14:07;16.10;85.70
360;DHT22;168;48.872;9.226;2023-04-23T00:16:35;16.00;85.70
360;DHT22;168;48.872;9.226;2023-04-23T00:19:03;16.10;85.30
360;DHT22;168;48.872;9.226;2023-04-23T00:21:30;16.10;85.20
360;DHT22;168;48.872;9.226;2023-04-23T00:23:59;16.10;85.00
360;DHT22;168;48.872;9.226;2023-04-23T00:26:26;16.00;84.80
360;DHT22;168;48.872;9.226;2023-04-23T00:28:53;16.00;85.30
360;DHT22;168;48.872;9.226;2023-04-23T00:31:21;16.00;85.10
360;DHT22;168;48.872;9.226;2023-04-23T00:33:49;15.90;85.50
360;DHT22;168;48.872;9.226;2023-04-23T00:36:16;15.90;85.80
360;DHT22;168;48.872;9.226;2023-04-23T00:38:43;15.90;86.70
360;DHT22;168;48.872;9.226;2023-04-23T00:41:12;15.90;87.60
360;DHT22;168;48.872;9.226;2023-04-23T00:43:40;15.80;88.30
360;DHT22;168;48.872;9.226;2023-04-23T00:46:09;15.80;88.80
360;DHT22;168;48.872;9.226;2023-04-23T00:48:36;15.80;89.40
360;DHT22;168;48.872;9.226;2023-04-23T00:51:05;15.70;89.60
360;DHT22;168;48.872;9.226;2023-04-23T00:53:32;15.70;90.10
360;DHT22;168;48.872;9.226;2023-04-23T00:56:01;15.60;90.00
360;DHT22;168;48.872;9.226;2023-04-23T00:58:31;15.50;90.80
360;DHT22;168;48.872;9.226;2023-04-23T01:00:59;15.50;91.60
360;DHT22;168;48.872;9.226;2023-04-23T01:03:30;15.40;92.20
360;DHT22;168;48.872;9.226;2023-04-23T01:05:58;15.30;92.50
360;DHT22;168;48.872;9.226;2023-04-23T01:08:25;15.30;93.00
360;DHT22;168;48.872;9.226;2023-04-23T01:10:53;15.20;93.20
360;DHT22;168;48.872;9.226;2023-04-23T01:13:20;15.20;93.60
360;DHT22;168;48.872;9.226;2023-04-23T01:15:51;15.10;93.90
360;DHT22;168;48.872;9.226;2023-04-23T01:18:18;15.10;93.90
360;DHT22;168;48.872;9.226;2023-04-23T01:20:46;15.20;93.80
360;DHT22;168;48.872;9.226;2023-04-23T01:23:16;15.20;93.70
360;DHT22;168;48.872;9.226;2023-04-23T01:25:43;15.10;94.00
360;DHT22;168;48.872;9.226;2023-04-23T01:28:11;14.90;94.40
360;DHT22;168;48.872;9.226;2023-04-23T01:30:41;14.80;94.80
360;DHT22;168;48.872;9.226;2023-04-23T01:33:09;14.70;95.10
360;DHT22;168;48.872;9.226;2023-04-23T01:35:38;14.60;95.50
360;DHT22;168;48.872;9.226;2023-04-23T01:38:08;14.50;95.80
360;DHT22;168;48.872;9.226;2023-04-23T01:40:37;14.50;95.90
360;DHT22;168;48.872;9.226;2023-04-23T01:43:05;14.60;96.00
360;DHT22;168;48.872;9.226;2023-04-23T01:45:33;14.50;96.00
360;DHT22;168;48.872;9.226;2023-04-23T01:48:00;14.50;96.00
360;DHT22;168;48.872;9.226;2023-04-23T01:50:27;14.40;96.20
360;DHT22;168;48.872;9.226;2023-04-23T01:52:55;14.40;96.40
360;DHT22;168;48.872;9.226;2023-04-23T01:55:23;14.40;96.30
360;DHT22;168;48.872;9.226;2023-04-23T01:57:51;14.40;96.30
360;DHT22;168;48.872;9.226;2023-04-23T02:00:19;14.40;96.30
360;DHT22;168;48.872;9.226;2023-04-23T02:02:46;14.50;96.30
360;DHT22;168;48.872;9.226;2023-04-23T02:05:15;14.50;96.30
360;DHT22;168;48.872;9.226;2023-04-23T02:07:44;14.60;96.10
360;DHT22;168;48.872;9.226;2023-04-23T02:10:12;14.60;96.30
360;DHT22;168;48.872;9.226;2023-04-23T02:12:39;14.60;96.30
360;DHT22;168;48.872;9.226;2023-04-23T02:15:09;14.60;96.40
360;DHT22;168;48.872;9.226;2023-04-23T02:17:36;14.60;96.30
360;DHT22;168;48.872;9.226;2023-04-23T02:20:06;14.60;96.20
360;DHT22;168;48.872;9.226;2023-04-23T02:22:34;14.70;96.10
360;DHT22;168;48.872;9.226;2023-04-23T02:25:04;14.70;96.20
360;DHT22;168;48.872;9.226;2023-04-23T02:27:31;14.70;96.20
360;DHT22;168;48.872;9.226;2023-04-23T02:29:59;14.60;96.20
360;DHT22;168;48.872;9.226;2023-04-23T02:32:28;14.60;96.30
360;DHT22;168;48.872;9.226;2023-04-23T02:34:55;14.60;96.50
360;DHT22;168;48.872;9.226;2023-04-23T02:37:24;14.60;96.40
360;DHT22;168;48.872;9.226;2023-04-23T02:39:52;14.60;96.30
360;DHT22;168;48.872;9.226;2023-04-23T02:42:19;14.60;96.20
360;DHT22;168;48.872;9.226;2023-04-23T02:44:47;14.50;96.40
360;DHT22;168;48.872;9.226;2023-04-23T02:47:14;14.50;96.40
360;DHT22;168;48.872;9.226;2023-04-23T02:49:43;14.40;96.10
360;DHT22;168;48.872;9.226;2023-04-23T02:52:10;14.50;96.00
360;DHT22;168;48.872;9.226;2023-04-23T02:54:37;14.50;96.20
360;DHT22;168;48.872;9.226;2023-04-23T02:57:05;14.40;95.80
360;DHT22;168;48.872;9.226;2023-04-23T02:59:32;14.40;95.70
360;DHT22;168;48.872;9.226;2023-04-23T03:02:00;14.40;95.80
360;DHT22;168;48.872;9.226;2023-04-23T03:04:27;14.30;95.50
360;DHT22;168;48.872;9.226;2023-04-23T03:06:56;14.30;95.20
360;DHT22;168;48.872;9.226;2023-04-23T03:09:23;14.20;95.40
360;DHT22;168;48.872;9.226;2023-04-23T03:11:50;14.10;95.10
360;DHT22;168;48.872;9.226;2023-04-23T03:14:18;14.10;94.50
360;DHT22;168;48.872;9.226;2023-04-23T03:16:45;14.00;94.30
360;DHT22;168;48.872;9.226;2023-04-23T03:19:13;14.00;94.60
360;DHT22;168;48.872;9.226;2023-04-23T03:21:40;14.10;94.60
360;DHT22;168;48.872;9.226;2023-04-23T03:24:11;14.10;94.40
360;DHT22;168;48.872;9.226;2023-04-23T03:30:11;14.10;94.20
360;DHT22;168;48.872;9.226;2023-04-23T03:32:49;14.10;94.70
360;DHT22;168;48.872;9.226;2023-04-23T03:35:16;14.10;94.70
360;DHT22;168;48.872;9.226;2023-04-23T03:38:09;14.10;94.90
360;DHT22;168;48.872;9.226;2023-04-23T03:40:42;14.10;94.90
360;DHT22;168;48.872;9.226;2023-04-23T03:43:10;14.10;94.70
360;DHT22;168;48.872;9.226;2023-04-23T03:45:37;14.10;94.70
360;DHT22;168;48.872;9.226;2023-04-23T03:48:05;14.10;94.60
360;DHT22;168;48.872;9.226;2023-04-23T03:50:32;14.10;95.10
360;DHT22;168;48.872;9.226;2023-04-23T03:53:03;14.10;95.40
360;DHT22;168;48.872;9.226;2023-04-23T03:55:31;14.10;95.60
360;DHT22;168;48.872;9.226;2023-04-23T03:58:01;14.10;95.60
360;DHT22;168;48.872;9.226;2023-04-23T04:00:29;14.10;95.80
360;DHT22;168;48.872;9.226;2023-04-23T04:02:56;14.10;95.60
360;DHT22;168;48.872;9.226;2023-04-23T04:05:24;14.10;95.40
360;DHT22;168;48.872;9.226;2023-04-23T04:07:51;14.00;95.30
360;DHT22;168;48.872;9.226;2023-04-23T04:10:19;14.00;95.20
360;DHT22;168;48.872;9.226;2023-04-23T04:12:46;14.00;95.10
360;DHT22;168;48.872;9.226;2023-04-23T04:15:15;14.00;95.00
360;DHT22;168;48.872;9.226;2023-04-23T04:17:45;13.90;95.00
360;DHT22;168;48.872;9.226;2023-04-23T04:20:13;13.90;95.20
360;DHT22;168;48.872;9.226;2023-04-23T04:22:40;14.00;95.60
360;DHT22;168;48.872;9.226;2023-04-23T04:25:07;13.90;95.60
360;DHT22;168;48.872;9.226;2023-04-23T04:27:35;13.90;95.60
360;DHT22;168;48.872;9.226;2023-04-23T04:30:05;13.80;95.50
360;DHT22;168;48.872;9.226;2023-04-23T04:32:34;13.80;95.80
360;DHT22;168;48.872;9.226;2023-04-23T04:35:04;13.80;95.80
360;DHT22;168;48.872;9.226;2023-04-23T04:37:31;13.80;95.80
360;DHT22;168;48.872;9.226;2023-04-23T04:39:59;13.70;95.70
360;DHT22;168;48.872;9.226;2023-04-23T04:42:26;13.60;95.30
360;DHT22;168;48.872;9.226;2023-04-23T04:44:53;13.50;95.10
360;DHT22;168;48.872;9.226;2023-04-23T04:47:23;13.40;95.20
360;DHT22;168;48.872;9.226;2023-04-23T04:49:51;13.40;94.90
360;DHT22;168;48.872;9.226;2023-04-23T04:52:22;13.40;94.60
360;DHT22;168;48.872;9.226;2023-04-23T04:54:49;13.30;94.30
360;DHT22;168;48.872;9.226;2023-04-23T04:57:17;13.30;94.20
360;DHT22;168;48.872;9.226;2023-04-23T04:59:46;13.30;94.10
360;DHT22;168;48.872;9.226;2023-04-23T05:02:13;13.30;94.30
360;DHT22;168;48.872;9.226;2023-04-23T05:04:41;13.40;94.40
360;DHT22;168;48.872;9.226;2023-04-23T05:07:10;13.40;94.50
360;DHT22;168;48.872;9.226;2023-04-23T05:09:37;13.40;94.50
360;DHT22;168;48.872;9.226;2023-04-23T05:12:05;13.40;94.70
360;DHT22;168;48.872;9.226;2023-04-23T05:14:33;13.50;94.40
360;DHT22;168;48.872;9.226;2023-04-23T05:17:00;13.50;94.80
360;DHT22;168;48.872;9.226;2023-04-23T05:19:28;13.60;94.90
360;DHT22;168;48.872;9.226;2023-04-23T05:21:55;13.70;95.10
360;DHT22;168;48.872;9.226;2023-04-23T05:24:24;13.80;95.30
360;DHT22;168;48.872;9.226;2023-04-23T05:26:52;13.90;95.50
360;DHT22;168;48.872;9.226;2023-04-23T05:29:33;14.00;95.40
360;DHT22;168;48.872;9.226;2023-04-23T05:32:01;14.10;95.60
360;DHT22;168;48.872;9.226;2023-04-23T05:34:28;14.20;95.70
360;DHT22;168;48.872;9.226;2023-04-23T05:36:57;14.40;95.90
360;DHT22;168;48.872;9.226;2023-04-23T05:39:27;14.60;96.10
360;DHT22;168;48.872;9.226;2023-04-23T05:41:54;14.80;96.30
360;DHT22;168;48.872;9.226;2023-04-23T05:44:23;14.90;96.30
360;DHT22;168;48.872;9.226;2023-04-23T05:46:50;15.00;96.30
360;DHT22;168;48.872;9.226;2023-04-23T05:49:17;15.00;96.40
360;DHT22;168;48.872;9.226;2023-04-23T05:51:45;15.00;96.30
360;DHT22;168;48.872;9.226;2023-04-23T05:54:12;15.00;96.20
360;DHT22;168;48.872;9.226;2023-04-23T05:56:41;15.00;96.30
360;DHT22;168;48.872;9.226;2023-04-23T05:59:08;15.00;96.30
360;DHT22;168;48.872;9.226;2023-04-23T06:01:36;15.10;96.20
360;DHT22;168;48.872;9.226;2023-04-23T06:04:03;15.10;96.20
360;DHT22;168;48.872;9.226;2023-04-23T06:06:30;15.30;96.10
360;DHT22;168;48.872;9.226;2023-04-23T06:08:58;15.40;96.00
360;DHT22;168;48.872;9.226;2023-04-23T06:11:26;15.40;96.00
360;DHT22;168;48.872;9.226;2023-04-23T06:13:54;15.50;96.00
360;DHT22;168;48.872;9.226;2023-04-23T06:16:23;15.60;95.90
360;DHT22;168;48.872;9.226;2023-04-23T06:18:50;15.70;95.70
360;DHT22;168;48.872;9.226;2023-04-23T06:21:19;15.80;95.70
360;DHT22;168;48.872;9.226;2023-04-23T06:23:46;15.90;95.80
360;DHT22;168;48.872;9.226;2023-04-23T06:26:14;16.00;95.70
360;DHT22;168;48.872;9.226;2023-04-23T06:28:42;16.10;95.50
360;DHT22;168;48.872;9.226;2023-04-23T06:31:11;16.20;95.30
360;DHT22;168;48.872;9.226;2023-04-23T06:33:39;16.30;95.10
360;DHT22;168;48.872;9.226;2023-04-23T06:36:07;16.40;95.10
360;DHT22;168;48.872;9.226;2023-04-23T06:38:35;16.40;95.10
360;DHT22;168;48.872;9.226;2023-04-23T06:41:03;16.60;94.90
360;DHT22;168;48.872;9.226;2023-04-23T06:43:31;16.60;94.70
360;DHT22;168;48.872;9.226;2023-04-23T06:45:59;16.70;93.80
360;DHT22;168;48.872;9.226;2023-04-23T06:48:28;16.80;93.20
360;DHT22;168;48.872;9.226;2023-04-23T06:50:57;16.90;93.60
360;DHT22;168;48.872;9.226;2023-04-23T06:53:24;17.00;93.50
360;DHT22;168;48.872;9.226;2023-04-23T06:55:52;17.00;92.90
360;DHT22;168;48.872;9.226;2023-04-23T06:58:19;17.00;93.60
360;DHT22;168;48.872;9.226;2023-04-23T07:00:48;17.10;93.20
360;DHT22;168;48.872;9.226;2023-04-23T07:03:15;17.20;92.70
360;DHT22;168;48.872;9.226;2023-04-23T07:05:44;17.20;93.00
360;DHT22;168;48.872;9.226;2023-04-23T07:08:11;17.30;92.80
360;DHT22;168;48.872;9.226;2023-04-23T07:10:39;17.30;91.80
360;DHT22;168;48.872;9.226;2023-04-23T07:13:07;17.40;91.30
360;DHT22;168;48.872;9.226;2023-04-23T07:15:34;17.40;91.00
360;DHT22;168;48.872;9.226;2023-04-23T07:18:03;17.40;89.90
360;DHT22;168;48.872;9.226;2023-04-23T07:20:31;17.30;90.60
360;DHT22;168;48.872;9.226;2023-04-23T07:23:00;17.40;91.20
360;DHT22;168;48.872;9.226;2023-04-23T07:25:29;17.50;90.50
360;DHT22;168;48.872;9.226;2023-04-23T07:27:57;17.60;89.80
360;DHT22;168;48.872;9.226;2023-04-23T07:30:25;17.80;89.50
360;DHT22;168;48.872;9.226;2023-04-23T07:32:53;18.00;89.20
360;DHT22;168;48.872;9.226;2023-04-23T07:35:21;18.10;89.10
360;DHT22;168;48.872;9.226;2023-04-23T07:37:49;18.20;87.80
360;DHT22;168;48.872;9.226;2023-04-23T07:40:21;18.30;85.40
360;DHT22;168;48.872;9.226;2023-04-23T07:42:49;18.30;85.50
360;DHT22;168;48.872;9.226;2023-04-23T07:45:17;18.30;85.40
360;DHT22;168;48.872;9.226;2023-04-23T07:47:44;18.20;85.70
360;DHT22;168;48.872;9.226;2023-04-23T07:50:12;18.10;86.30
360;DHT22;168;48.872;9.226;2023-04-23T07:52:40;18.10;85.90
360;DHT22;168;48.872;9.226;2023-04-23T07:55:08;18.10;85.50
360;DHT22;168;48.872;9.226;2023-04-23T07:57:37;18.10;84.90
360;DHT22;168;48.872;9.226;2023-04-23T08:00:05;18.20;84.50
360;DHT22;168;48.872;9.226;2023-04-23T08:02:34;18.40;83.80
360;DHT22;168;48.872;9.226;2023-04-23T08:05:02;18.50;85.10
360;DHT22;168;48.872;9.226;2023-04-23T08:07:29;18.70;84.30
360;DHT22;168;48.872;9.226;2023-04-23T08:09:56;18.90;82.40
360;DHT22;168;48.872;9.226;2023-04-23T08:12:28;19.00;82.40
360;DHT22;168;48.872;9.226;2023-04-23T08:14:57;19.20;77.70
360;DHT22;168;48.872;9.226;2023-04-23T08:17:24;19.20;75.60
360;DHT22;168;48.872;9.226;2023-04-23T08:19:51;19.00;73.70
360;DHT22;168;48.872;9.226;2023-04-23T08:22:19;18.70;73.50
360;DHT22;168;48.872;9.226;2023-04-23T08:24:46;18.50;76.30
360;DHT22;168;48.872;9.226;2023-04-23T08:27:13;18.60;77.70
360;DHT22;168;48.872;9.226;2023-04-23T08:29:41;18.70;77.20
360;DHT22;168;48.872;9.226;2023-04-23T08:32:09;18.80;77.20
360;DHT22;168;48.872;9.226;2023-04-23T08:34:38;18.90;75.20
360;DHT22;168;48.872;9.226;2023-04-23T08:37:05;18.90;75.40
360;DHT22;168;48.872;9.226;2023-04-23T08:39:33;19.00;77.90
360;DHT22;168;48.872;9.226;2023-04-23T08:42:07;19.20;79.70
360;DHT22;168;48.872;9.226;2023-04-23T08:44:37;19.30;81.30
360;DHT22;168;48.872;9.226;2023-04-23T08:47:09;19.40;79.90
360;DHT22;168;48.872;9.226;2023-04-23T08:49:40;19.50;78.90
360;DHT22;168;48.872;9.226;2023-04-23T08:52:14;19.60;79.20
360;DHT22;168;48.872;9.226;2023-04-23T08:54:46;19.80;77.40
360;DHT22;168;48.872;9.226;2023-04-23T08:57:15;19.90;76.80
360;DHT22;168;48.872;9.226;2023-04-23T08:59:43;20.20;76.50
360;DHT22;168;48.872;9.226;2023-04-23T09:02:12;20.40;74.30
360;DHT22;168;48.872;9.226;2023-04-23T09:04:40;20.50;74.10
360;DHT22;168;48.872;9.226;2023-04-23T09:07:08;20.70;72.30
360;DHT22;168;48.872;9.226;2023-04-23T09:09:37;20.80;70.90
360;DHT22;168;48.872;9.226;2023-04-23T09:12:06;20.60;70.80
360;DHT22;168;48.872;9.226;2023-04-23T09:14:34;20.30;72.10
360;DHT22;168;48.872;9.226;2023-04-23T09:17:02;20.30;72.80
360;DHT22;168;48.872;9.226;2023-04-23T09:19:31;20.40;73.00
360;DHT22;168;48.872;9.226;2023-04-23T09:21:59;20.50;72.60
360;DHT22;168;48.872;9.226;2023-04-23T09:24:27;20.70;71.40
360;DHT22;168;48.872;9.226;2023-04-23T09:26:57;20.80;71.80
360;DHT22;168;48.872;9.226;2023-04-23T09:29:24;20.90;71.80
360;DHT22;168;48.872;9.226;2023-04-23T09:31:53;20.90;70.90
360;DHT22;168;48.872;9.226;2023-04-23T09:34:22;20.80;71.20
360;DHT22;168;48.872;9.226;2023-04-23T09:36:52;20.80;71.60
360;DHT22;168;48.872;9.226;2023-04-23T09:39:21;20.90;71.90
360;DHT22;168;48.872;9.226;2023-04-23T09:41:50;20.80;72.50
360;DHT22;168;48.872;9.226;2023-04-23T09:44:18;20.90;72.50
360;DHT22;168;48.872;9.226;2023-04-23T09:46:47;20.90;72.80
360;DHT22;168;48.872;9.226;2023-04-23T09:49:14;21.10;72.70
360;DHT22;168;48.872;9.226;2023-04-23T09:51:43;21.30;73.30
360;DHT22;168;48.872;9.226;2023-04-23T09:54:14;21.50;72.10
360;DHT22;168;48.872;9.226;2023-04-23T09:56:44;21.70;70.80
360;DHT22;168;48.872;9.226;2023-04-23T09:59:25;21.80;69.20
360;DHT22;168;48.872;9.226;2023-04-23T10:01:52;21.80;68.20
360;DHT22;168;48.872;9.226;2023-04-23T10:04:21;21.70;69.60
360;DHT22;168;48.872;9.226;2023-04-23T10:06:53;21.80;68.70
360;DHT22;168;48.872;9.226;2023-04-23T10:09:23;21.80;67.30
360;DHT22;168;48.872;9.226;2023-04-23T10:11:51;21.80;66.10
360;DHT22;168;48.872;9.226;2023-04-23T10:14:19;21.80;68.10
360;DHT22;168;48.872;9.226;2023-04-23T10:16:50;22.00;68.10
360;DHT22;168;48.872;9.226;2023-04-23T10:19:21;22.10;68.20
360;DHT22;168;48.872;9.226;2023-04-23T10:21:51;22.40;68.20
360;DHT22;168;48.872;9.226;2023-04-23T10:24:19;22.60;65.70
360;DHT22;168;48.872;9.226;2023-04-23T10:26:52;22.70;66.00
360;DHT22;168;48.872;9.226;2023-04-23T10:29:25;22.70;66.10
360;DHT22;168;48.872;9.226;2023-04-23T10:31:54;22.80;66.30
360;DHT22;168;48.872;9.226;2023-04-23T10:34:24;23.00;63.90
360;DHT22;168;48.872;9.226;2023-04-23T10:36:51;23.10;64.20
360;DHT22;168;48.872;9.226;2023-04-23T10:39:20;23.20;62.70
360;DHT22;168;48.872;9.226;2023-04-23T10:41:48;23.20;62.90
360;DHT22;168;48.872;9.226;2023-04-23T10:44:16;23.10;61.00
360;DHT22;168;48.872;9.226;2023-04-23T10:46:51;23.00;62.40
360;DHT22;168;48.872;9.226;2023-04-23T10:49:19;23.00;62.20
360;DHT22;168;48.872;9.226;2023-04-23T10:51:48;23.00;62.10
360;DHT22;168;48.872;9.226;2023-04-23T10:54:17;23.00;62.40
360;DHT22;168;48.872;9.226;2023-04-23T10:56:45;22.90;62.90
360;DHT22;168;48.872;9.226;2023-04-23T10:59:24;22.90;62.50
360;DHT22;168;48.872;9.226;2023-04-23T11:01:55;23.10;62.80
360;DHT22;168;48.872;9.226;2023-04-23T11:04:25;23.20;62.10
360;DHT22;168;48.872;9.226;2023-04-23T11:06:55;23.30;61.50
360;DHT22;168;48.872;9.226;2023-04-23T11:09:30;23.40;61.20
360;DHT22;168;48.872;9.226;2023-04-23T11:11:58;23.40;61.30
360;DHT22;168;48.872;9.226;2023-04-23T11:14:35;23.50;62.50
360;DHT22;168;48.872;9.226;2023-04-23T11:17:03;23.50;61.50
360;DHT22;168;48.872;9.226;2023-04-23T11:19:34;23.80;61.00
360;DHT22;168;48.872;9.226;2023-04-23T11:22:03;23.90;59.40
360;DHT22;168;48.872;9.226;2023-04-23T11:24:35;24.00;59.30
360;DHT22;168;48.872;9.226;2023-04-23T11:27:09;23.90;59.60
360;DHT22;168;48.872;9.226;2023-04-23T11:29:39;23.90;59.80
360;DHT22;168;48.872;9.226;2023-04-23T11:32:07;23.90;59.30
360;DHT22;168;48.872;9.226;2023-04-23T11:34:36;24.00;58.90
360;DHT22;168;48.872;9.226;2023-04-23T11:37:05;24.10;58.70
360;DHT22;168;48.872;9.226;2023-04-23T11:39:34;24.10;59.10
360;DHT22;168;48.872;9.226;2023-04-23T11:42:02;24.10;58.80
360;DHT22;168;48.872;9.226;2023-04-23T11:44:29;24.10;57.80
360;DHT22;168;48.872;9.226;2023-04-23T11:47:00;24.20;58.70
360;DHT22;168;48.872;9.226;2023-04-23T11:49:28;24.40;58.50
360;DHT22;168;48.872;9.226;2023-04-23T11:51:58;24.50;58.80
360;DHT22;168;48.872;9.226;2023-04-23T11:54:27;24.60;57.80
360;DHT22;168;48.872;9.226;2023-04-23T11:56:55;24.80;59.00
360;DHT22;168;48.872;9.226;2023-04-23T11:59:25;24.90;56.90
360;DHT22;168;48.872;9.226;2023-04-23T12:01:53;25.00;54.70
360;DHT22;168;48.872;9.226;2023-04-23T12:04:24;25.00;53.80
360;DHT22;168;48.872;9.226;2023-04-23T12:06:53;25.00;55.80
360;DHT22;168;48.872;9.226;2023-04-23T12:09:22;25.00;54.80
360;DHT22;168;48.872;9.226;2023-04-23T12:11:50;25.00;53.90
360;DHT22;168;48.872;9.226;2023-04-23T12:14:19;24.90;55.00
360;DHT22;168;48.872;9.226;2023-04-23T12:16:49;24.90;53.50
360;DHT22;168;48.872;9.226;2023-04-23T12:19:18;25.00;54.10
360;DHT22;168;48.872;9.226;2023-04-23T12:21:48;24.90;53.70
360;DHT22;168;48.872;9.226;2023-04-23T12:24:16;24.90;52.80
360;DHT22;168;48.872;9.226;2023-04-23T12:26:44;24.90;52.00
360;DHT22;168;48.872;9.226;2023-04-23T12:29:12;24.80;54.30
360;DHT22;168;48.872;9.226;2023-04-23T12:31:42;24.70;53.80
360;DHT22;168;48.872;9.226;2023-04-23T12:34:11;24.80;54.60
360;DHT22;168;48.872;9.226;2023-04-23T12:36:44;24.90;55.60
360;DHT22;168;48.872;9.226;2023-04-23T12:39:34;24.90;55.80
360;DHT22;168;48.872;9.226;2023-04-23T12:42:03;24.90;56.30
360;DHT22;168;48.872;9.226;2023-04-23T12:44:32;25.00;55.60
360;DHT22;168;48.872;9.226;2023-04-23T12:47:01;25.00;53.90
360;DHT22;168;48.872;9.226;2023-04-23T12:49:30;24.90;56.10
360;DHT22;168;48.872;9.226;2023-04-23T12:51:58;25.00;57.00
360;DHT22;168;48.872;9.226;2023-04-23T12:54:28;25.10;57.20
360;DHT22;168;48.872;9.226;2023-04-23T12:56:59;25.20;55.90
360;DHT22;168;48.872;9.226;2023-04-23T12:59:28;25.30;55.80
360;DHT22;168;48.872;9.226;2023-04-23T13:01:56;25.40;54.30
360;DHT22;168;48.872;9.226;2023-04-23T13:04:26;25.40;55.10
360;DHT22;168;48.872;9.226;2023-04-23T13:06:54;25.20;57.10
360;DHT22;168;48.872;9.226;2023-04-23T13:09:21;25.10;56.30
360;DHT22;168;48.872;9.226;2023-04-23T13:11:49;24.90;56.50
360;DHT22;168;48.872;9.226;2023-04-23T13:14:18;24.90;56.60
360;DHT22;168;48.872;9.226;2023-04-23T13:16:46;25.00;55.80
360;DHT22;168;48.872;9.226;2023-04-23T13:19:14;25.10;55.70
360;DHT22;168;48.872;9.226;2023-04-23T13:21:41;25.10;55.50
360;DHT22;168;48.872;9.226;2023-04-23T13:24:09;25.10;55.80
360;DHT22;168;48.872;9.226;2023-04-23T13:26:36;25.10;55.80
360;DHT22;168;48.872;9.226;2023-04-23T13:29:04;25.10;55.00
360;DHT22;168;48.872;9.226;2023-04-23T13:31:32;25.00;54.30
360;DHT22;168;48.872;9.226;2023-04-23T13:34:00;24.70;55.20
360;DHT22;168;48.872;9.226;2023-04-23T13:36:28;24.50;55.80
360;DHT22;168;48.872;9.226;2023-04-23T13:38:55;24.60;57.40
360;DHT22;168;48.872;9.226;2023-04-23T13:41:24;24.90;58.30
360;DHT22;168;48.872;9.226;2023-04-23T13:43:51;25.20;54.20
360;DHT22;168;48.872;9.226;2023-04-23T13:46:19;25.40;55.30
360;DHT22;168;48.872;9.226;2023-04-23T13:48:48;25.60;55.80
360;DHT22;168;48.872;9.226;2023-04-23T13:51:15;25.60;56.60
360;DHT22;168;48.872;9.226;2023-04-23T13:53:43;25.60;57.00
360;DHT22;168;48.872;9.226;2023-04-23T13:56:11;25.80;55.70
360;DHT22;168;48.872;9.226;2023-04-23T13:58:38;25.90;54.00
360;DHT22;168;48.872;9.226;2023-04-23T14:01:07;25.90;53.10
360;DHT22;168;48.872;9.226;2023-04-23T14:03:36;25.90;52.30
360;DHT22;168;48.872;9.226;2023-04-23T14:06:06;26.00;53.70
360;DHT22;168;48.872;9.226;2023-04-23T14:08:33;26.20;50.60
360;DHT22;168;48.872;9.226;2023-04-23T14:11:01;26.10;45.90
360;DHT22;168;48.872;9.226;2023-04-23T14:13:29;25.70;45.50
360;DHT22;168;48.872;9.226;2023-04-23T14:15:57;25.50;47.10
360;DHT22;168;48.872;9.226;2023-04-23T14:18:25;25.50;49.20
360;DHT22;168;48.872;9.226;2023-04-23T14:20:52;25.60;48.00
360;DHT22;168;48.872;9.226;2023-04-23T14:23:49;25.60;48.10
360;DHT22;168;48.872;9.226;2023-04-23T14:26:26;25.50;46.20
360;DHT22;168;48.872;9.226;2023-04-23T14:28:56;25.20;47.50
360;DHT22;168;48.872;9.226;2023-04-23T14:31:24;25.10;47.60
360;DHT22;168;48.872;9.226;2023-04-23T14:33:52;25.00;47.50
360;DHT22;168;48.872;9.226;2023-04-23T14:36:21;25.10;48.30
360;DHT22;168;48.872;9.226;2023-04-23T14:38:49;25.00;47.90
360;DHT22;168;48.872;9.226;2023-04-23T14:41:17;25.10;47.70
360;DHT22;168;48.872;9.226;2023-04-23T14:43:44;25.20;48.10
360;DHT22;168;48.872;9.226;2023-04-23T14:46:11;25.30;46.90
360;DHT22;168;48.872;9.226;2023-04-23T14:48:39;25.40;46.90
360;DHT22;168;48.872;9.226;2023-04-23T14:51:07;25.30;46.40
360;DHT22;168;48.872;9.226;2023-04-23T14:53:34;24.80;46.50
360;DHT22;168;48.872;9.226;2023-04-23T14:56:03;24.50;47.50
360;DHT22;168;48.872;9.226;2023-04-23T14:58:30;24.10;47.70
360;DHT22;168;48.872;9.226;2023-04-23T15:00:58;23.80;48.40
360;DHT22;168;48.872;9.226;2023-04-23T15:03:25;23.60;49.00
360;DHT22;168;48.872;9.226;2023-04-23T15:05:52;23.50;49.20
360;DHT22;168;48.872;9.226;2023-04-23T15:08:20;23.40;49.90
360;DHT22;168;48.872;9.226;2023-04-23T15:10:47;23.50;49.10
360;DHT22;168;48.872;9.226;2023-04-23T15:13:44;23.50;49.10
360;DHT22;168;48.872;9.226;2023-04-23T15:16:24;23.30;49.70
360;DHT22;168;48.872;9.226;2023-04-23T15:18:54;22.90;50.50
360;DHT22;168;48.872;9.226;2023-04-23T15:21:21;22.60;50.60
360;DHT22;168;48.872;9.226;2023-04-23T15:23:49;22.50;50.90
360;DHT22;168;48.872;9.226;2023-04-23T15:26:16;22.40;52.00
360;DHT22;168;48.872;9.226;2023-04-23T15:28:45;22.20;55.40
360;DHT22;168;48.872;9.226;2023-04-23T15:31:12;22.00;56.20
360;DHT22;168;48.872;9.226;2023-04-23T15:33:40;21.90;58.90
360;DHT22;168;48.872;9.226;2023-04-23T15:36:07;21.90;56.70
360;DHT22;168;48.872;9.226;2023-04-23T15:38:35;21.80;57.70
360;DHT22;168;48.872;9.226;2023-04-23T15:41:02;21.80;57.50
360;DHT22;168;48.872;9.226;2023-04-23T15:43:30;21.90;57.80
360;DHT22;168;48.872;9.226;2023-04-23T15:45:59;22.00;57.00
360;DHT22;168;48.872;9.226;2023-04-23T15:48:27;22.10;54.60
360;DHT22;168;48.872;9.226;2023-04-23T15:50:54;22.20;54.50
360;DHT22;168;48.872;9.226;2023-04-23T15:53:21;22.30;55.20
360;DHT22;168;48.872;9.226;2023-04-23T15:55:49;22.40;55.90
360;DHT22;168;48.872;9.226;2023-04-23T15:58:17;22.50;56.40
360;DHT22;168;48.872;9.226;2023-04-23T16:00:44;22.50;56.80
360;DHT22;168;48.872;9.226;2023-04-23T16:03:14;22.50;57.40
360;DHT22;168;48.872;9.226;2023-04-23T16:05:41;22.30;58.50
360;DHT22;168;48.872;9.226;2023-04-23T16:08:09;22.10;60.50
360;DHT22;168;48.872;9.226;2023-04-23T16:10:37;21.80;63.30
360;DHT22;168;48.872;9.226;2023-04-23T16:13:04;21.50;62.40
360;DHT22;168;48.872;9.226;2023-04-23T16:15:32;21.10;63.10
360;DHT22;168;48.872;9.226;2023-04-23T16:17:59;20.90;63.00
360;DHT22;168;48.872;9.226;2023-04-23T16:20:28;20.80;63.80
360;DHT22;168;48.872;9.226;2023-04-23T16:22:55;20.70;64.70
360;DHT22;168;48.872;9.226;2023-04-23T16:25:23;20.70;64.50
360;DHT22;168;48.872;9.226;2023-04-23T16:27:50;20.70;64.70
360;DHT22;168;48.872;9.226;2023-04-23T16:30:18;20.60;64.90
360;DHT22;168;48.872;9.226;2023-04-23T16:32:46;20.60;65.90
360;DHT22;168;48.872;9.226;2023-04-23T16:35:13;20.50;65.90
360;DHT22;168;48.872;9.226;2023-04-23T16:37:42;20.40;66.20
360;DHT22;168;48.872;9.226;2023-04-23T16:40:09;20.40;66.80
360;DHT22;168;48.872;9.226;2023-04-23T16:42:40;20.30;68.40
360;DHT22;168;48.872;9.226;2023-04-23T16:45:07;20.20;69.90
360;DHT22;168;48.872;9.226;2023-04-23T16:47:35;19.20;77.50